createdAt,value
2023-09-13T00:01:52.744Z,21.00
2023-09-13T00:04:22.034Z,21.00
2023-09-13T00:06:50.838Z,21.00
2023-09-13T00:09:20.702Z,20.90
2023-09-13T00:11:49.151Z,20.90
2023-09-13T00:14:17.070Z,20.90
2023-09-13T00:16:44.983Z,20.90
2023-09-13T00:19:14.473Z,20.90
2023-09-13T00:21:44.193Z,20.80
2023-09-13T00:24:12.983Z,20.80
2023-09-13T00:26:49.841Z,20.80
2023-09-13T00:29:18.355Z,20.80
2023-09-13T00:31:46.504Z,20.70
2023-09-13T00:34:14.758Z,20.70
2023-09-13T00:36:42.759Z,20.60
2023-09-13T00:39:10.612Z,20.60
2023-09-13T00:41:38.581Z,20.60
2023-09-13T00:44:08.508Z,20.50
2023-09-13T00:46:37.209Z,20.40
2023-09-13T00:49:05.659Z,20.30
2023-09-13T00:51:33.900Z,20.30
2023-09-13T00:54:05.211Z,20.30
2023-09-13T00:56:34.332Z,20.20
2023-09-13T00:59:03.949Z,20.20
2023-09-13T01:01:35.499Z,20.30
2023-09-13T01:04:04.659Z,20.20
2023-09-13T01:06:33.297Z,20.30
2023-09-13T01:09:01.410Z,20.20
2023-09-13T01:11:29.512Z,20.20
2023-09-13T01:13:57.536Z,20.20
2023-09-13T01:16:35.946Z,20.20
2023-09-13T01:19:22.146Z,20.10
2023-09-13T01:22:07.989Z,20.20
2023-09-13T01:24:58.739Z,20.20
2023-09-13T01:27:43.653Z,20.10
2023-09-13T01:30:15.602Z,20.00
2023-09-13T01:32:45.834Z,20.00
2023-09-13T01:35:13.756Z,19.90
2023-09-13T01:37:41.831Z,19.90
2023-09-13T01:40:10.919Z,19.90
2023-09-13T01:42:40.210Z,19.80
2023-09-13T01:45:11.864Z,19.80
2023-09-13T01:47:44.602Z,19.70
2023-09-13T01:50:14.093Z,19.70
2023-09-13T01:52:42.425Z,19.70
2023-09-13T01:55:11.858Z,19.70
2023-09-13T01:57:40.815Z,19.70
2023-09-13T02:00:10.209Z,19.60
2023-09-13T02:02:38.174Z,19.60
2023-09-13T02:05:08.778Z,19.60
2023-09-13T02:07:36.764Z,19.50
2023-09-13T02:10:05.259Z,19.40
2023-09-13T02:12:33.164Z,19.40
2023-09-13T02:15:01.114Z,19.40
2023-09-13T02:17:29.061Z,19.30
2023-09-13T02:19:56.954Z,19.30
2023-09-13T02:22:26.202Z,19.20
2023-09-13T02:24:54.225Z,19.20
2023-09-13T02:27:22.140Z,19.20
2023-09-13T02:29:50.065Z,19.10
2023-09-13T02:32:18.086Z,19.10
2023-09-13T02:34:46.515Z,19.10
2023-09-13T02:37:14.451Z,19.10
2023-09-13T02:39:44.301Z,19.10
2023-09-13T02:42:12.392Z,19.10
2023-09-13T02:44:41.417Z,19.10
2023-09-13T02:47:09.461Z,19.20
2023-09-13T02:49:37.401Z,19.20
2023-09-13T02:52:05.980Z,19.20
2023-09-13T02:54:34.130Z,19.20
2023-09-13T02:57:03.469Z,19.10
2023-09-13T02:59:31.366Z,19.10
2023-09-13T03:01:59.439Z,19.10
2023-09-13T03:04:27.676Z,19.10
2023-09-13T03:06:55.652Z,19.10
2023-09-13T03:09:23.661Z,19.10
2023-09-13T03:11:51.638Z,19.10
2023-09-13T03:14:20.926Z,19.10
2023-09-13T03:16:48.867Z,19.10
2023-09-13T03:19:16.897Z,19.20
2023-09-13T03:21:46.128Z,19.20
2023-09-13T03:24:14.128Z,19.20
2023-09-13T03:26:42.352Z,19.10
2023-09-13T03:29:10.301Z,19.00
2023-09-13T03:31:39.939Z,19.00
2023-09-13T03:34:08.101Z,19.00
2023-09-13T03:36:36.465Z,18.90
2023-09-13T03:39:05.236Z,18.90
2023-09-13T03:41:33.886Z,18.80
2023-09-13T03:44:03.645Z,18.80
2023-09-13T03:46:31.757Z,18.70
2023-09-13T03:49:01.468Z,18.60
2023-09-13T03:51:29.758Z,18.60
2023-09-13T03:53:59.482Z,18.60
2023-09-13T03:56:27.478Z,18.60
2023-09-13T03:58:56.276Z,18.60
2023-09-13T04:01:25.464Z,18.60
2023-09-13T04:03:53.646Z,18.60
2023-09-13T04:06:23.251Z,18.50
2023-09-13T04:08:51.377Z,18.60
2023-09-13T04:11:19.489Z,18.60
2023-09-13T04:13:47.652Z,18.60
2023-09-13T04:16:17.583Z,18.50
2023-09-13T04:18:45.934Z,18.60
2023-09-13T04:21:13.962Z,18.60
2023-09-13T04:23:43.457Z,18.60
2023-09-13T04:26:11.710Z,18.60
2023-09-13T04:28:39.652Z,18.60
2023-09-13T04:31:08.412Z,18.70
2023-09-13T04:33:54.839Z,18.70
2023-09-13T04:36:24.702Z,18.70
2023-09-13T04:38:54.371Z,18.70
2023-09-13T04:41:22.297Z,18.70
2023-09-13T04:43:50.337Z,18.60
2023-09-13T04:46:18.639Z,18.60
2023-09-13T04:48:46.990Z,18.60
2023-09-13T04:51:14.902Z,18.60
2023-09-13T04:53:43.155Z,18.60
2023-09-13T04:56:12.852Z,18.50
2023-09-13T04:58:40.870Z,18.40
2023-09-13T05:01:09.342Z,18.30
2023-09-13T05:03:37.500Z,18.20
2023-09-13T05:06:08.669Z,18.20
2023-09-13T05:08:38.462Z,18.20
2023-09-13T05:11:06.447Z,18.20
2023-09-13T05:13:35.795Z,18.20
2023-09-13T05:16:04.230Z,18.20
2023-09-13T05:18:31.243Z,18.20
2023-09-13T05:20:59.190Z,18.20
2023-09-13T05:23:27.201Z,18.20
2023-09-13T05:25:57.002Z,18.30
2023-09-13T05:28:25.467Z,18.30
2023-09-13T05:30:56.055Z,18.40
2023-09-13T05:33:25.021Z,18.40
2023-09-13T05:35:53.138Z,18.50
2023-09-13T05:38:21.072Z,18.60
2023-09-13T05:40:49.187Z,18.70
2023-09-13T05:43:17.303Z,18.80
2023-09-13T05:45:45.893Z,18.90
2023-09-13T05:48:15.324Z,19.00
2023-09-13T05:50:43.346Z,19.10
2023-09-13T05:53:11.254Z,19.20
2023-09-13T05:55:39.463Z,19.20
2023-09-13T05:58:07.383Z,19.30
2023-09-13T06:00:35.272Z,19.30
2023-09-13T06:03:03.766Z,19.30
2023-09-13T06:05:33.182Z,19.40
2023-09-13T06:08:01.139Z,19.40
2023-09-13T06:10:29.365Z,19.40
2023-09-13T06:12:57.394Z,19.40
2023-09-13T06:15:25.461Z,19.50
2023-09-13T06:17:55.065Z,19.50
2023-09-13T06:20:23.041Z,19.60
2023-09-13T06:22:52.336Z,19.60
2023-09-13T06:25:20.625Z,19.70
2023-09-13T06:27:48.637Z,19.80
2023-09-13T06:30:16.675Z,19.80
2023-09-13T06:32:45.867Z,19.90
2023-09-13T06:35:17.204Z,20.00
2023-09-13T06:37:47.908Z,20.00
2023-09-13T06:40:18.196Z,20.10
2023-09-13T06:45:26.804Z,20.20
2023-09-13T06:47:56.030Z,20.30
2023-09-13T06:53:18.476Z,20.50
2023-09-13T06:55:45.290Z,20.60
2023-09-13T06:58:18.402Z,20.70
2023-09-13T07:03:22.439Z,20.80
2023-09-13T07:05:52.227Z,20.80
2023-09-13T07:08:20.215Z,20.70
2023-09-13T07:10:49.524Z,20.80
2023-09-13T07:13:17.442Z,20.90
2023-09-13T07:15:45.311Z,20.90
2023-09-13T07:18:13.313Z,20.90
2023-09-13T07:20:48.672Z,21.00
2023-09-13T07:23:17.276Z,21.00
2023-09-13T07:25:49.236Z,21.00
2023-09-13T07:28:17.549Z,21.00
2023-09-13T07:30:45.652Z,20.90
2023-09-13T07:33:13.576Z,21.00
2023-09-13T07:35:41.489Z,21.00
2023-09-13T07:38:11.333Z,21.10
2023-09-13T07:40:39.689Z,21.20
2023-09-13T07:43:09.411Z,21.30
2023-09-13T07:45:37.450Z,21.50
2023-09-13T07:48:06.288Z,21.60
2023-09-13T07:50:38.232Z,21.60
2023-09-13T07:53:07.340Z,21.70
2023-09-13T07:55:36.114Z,21.70
2023-09-13T07:58:04.839Z,21.80
2023-09-13T08:00:34.237Z,21.90
2023-09-13T08:03:03.039Z,22.00
2023-09-13T08:05:31.072Z,22.00
2023-09-13T08:07:59.829Z,22.20
2023-09-13T08:10:28.157Z,22.30
2023-09-13T08:12:56.148Z,22.40
2023-09-13T08:15:34.499Z,22.50
2023-09-13T08:18:12.468Z,22.60
2023-09-13T08:20:40.401Z,22.70
2023-09-13T08:23:08.360Z,22.80
2023-09-13T08:25:36.327Z,22.90
2023-09-13T08:28:05.306Z,22.90
2023-09-13T08:30:33.413Z,22.90
2023-09-13T08:33:01.386Z,23.00
2023-09-13T08:35:30.695Z,22.90
2023-09-13T08:37:58.680Z,22.80
2023-09-13T08:40:26.615Z,22.80
2023-09-13T08:42:57.830Z,22.70
2023-09-13T08:45:26.414Z,22.70
2023-09-13T08:48:02.975Z,22.60
2023-09-13T08:50:35.924Z,22.60
2023-09-13T08:53:05.355Z,22.80
2023-09-13T08:55:34.492Z,23.00
2023-09-13T08:58:02.764Z,23.20
2023-09-13T09:00:33.500Z,23.30
2023-09-13T09:03:06.428Z,23.50
2023-09-13T09:05:39.427Z,23.60
2023-09-13T09:08:09.141Z,23.70
2023-09-13T09:10:37.845Z,23.60
2023-09-13T09:13:08.191Z,23.50
2023-09-13T09:15:39.481Z,23.50
2023-09-13T09:18:12.541Z,23.70
2023-09-13T09:20:42.969Z,24.10
2023-09-13T09:23:11.782Z,24.30
2023-09-13T09:25:41.808Z,24.40
2023-09-13T09:28:09.883Z,24.30
2023-09-13T09:30:39.851Z,24.30
2023-09-13T09:33:08.907Z,24.20
2023-09-13T09:35:37.784Z,24.00
2023-09-13T09:38:22.819Z,23.80
2023-09-13T09:40:51.389Z,23.50
2023-09-13T09:43:19.497Z,23.30
2023-09-13T09:45:47.731Z,23.20
2023-09-13T09:48:16.431Z,23.10
2023-09-13T09:50:48.012Z,23.00
2023-09-13T09:53:19.175Z,23.00
2023-09-13T09:55:47.519Z,23.20
2023-09-13T09:58:16.712Z,23.30
2023-09-13T10:00:49.427Z,23.40
2023-09-13T10:03:20.438Z,23.60
2023-09-13T10:05:56.967Z,23.80
2023-09-13T10:08:48.523Z,24.00
2023-09-13T10:11:18.959Z,24.30
2023-09-13T10:13:47.672Z,24.50
2023-09-13T10:16:17.329Z,24.60
2023-09-13T10:18:47.997Z,24.80
2023-09-13T10:21:17.136Z,25.00
2023-09-13T10:23:50.864Z,25.20
2023-09-13T10:26:22.011Z,25.40
2023-09-13T10:28:53.702Z,25.60
2023-09-13T10:31:27.355Z,25.80
2023-09-13T10:33:55.553Z,26.00
2023-09-13T10:36:29.877Z,25.90
2023-09-13T10:39:17.685Z,25.80
2023-09-13T10:41:51.787Z,25.70
2023-09-13T10:44:21.161Z,25.60
2023-09-13T10:46:49.745Z,25.40
2023-09-13T10:49:17.870Z,25.30
2023-09-13T10:51:47.347Z,24.90
2023-09-13T10:54:18.314Z,24.70
2023-09-13T10:56:46.348Z,24.50
2023-09-13T10:59:18.475Z,24.50
2023-09-13T11:01:48.148Z,24.50
2023-09-13T11:04:16.204Z,24.50
2023-09-13T11:06:45.875Z,24.50
2023-09-13T11:09:16.661Z,24.60
2023-09-13T11:11:49.362Z,24.60
2023-09-13T11:14:20.501Z,24.60
2023-09-13T11:16:48.711Z,24.70
2023-09-13T11:19:17.304Z,24.70
2023-09-13T11:21:51.057Z,24.90
2023-09-13T11:24:50.521Z,24.90
2023-09-13T11:27:26.623Z,25.00
2023-09-13T11:29:59.898Z,25.10
2023-09-13T11:32:32.744Z,25.00
2023-09-13T11:35:02.146Z,25.00
2023-09-13T11:37:33.674Z,25.00
2023-09-13T11:40:13.162Z,25.00
2023-09-13T11:42:59.616Z,25.00
2023-09-13T11:45:34.351Z,25.00
2023-09-13T11:48:07.424Z,25.10
2023-09-13T11:50:48.111Z,25.20
2023-09-13T11:53:21.590Z,25.30
2023-09-13T11:58:38.569Z,25.60
2023-09-13T12:01:26.151Z,25.60
2023-09-13T12:04:35.477Z,25.60
2023-09-13T12:06:47.235Z,25.60
2023-09-13T12:09:19.959Z,25.50
2023-09-13T12:11:57.530Z,25.20
2023-09-13T12:14:50.927Z,24.90
2023-09-13T12:17:20.297Z,24.60
2023-09-13T12:19:48.930Z,24.30
2023-09-13T12:22:19.359Z,24.20
2023-09-13T12:24:54.177Z,24.20
2023-09-13T12:27:25.323Z,23.90
2023-09-13T12:29:53.383Z,23.80
2023-09-13T12:32:22.169Z,23.80
2023-09-13T12:34:50.332Z,23.70
2023-09-13T12:37:18.301Z,23.80
2023-09-13T12:39:46.316Z,24.00
2023-09-13T12:42:16.083Z,24.10
2023-09-13T12:44:47.133Z,24.30
2023-09-13T12:47:18.961Z,24.30
2023-09-13T12:49:47.653Z,24.40
2023-09-13T12:52:17.326Z,24.50
2023-09-13T12:54:47.267Z,25.20
2023-09-13T12:57:15.535Z,25.80
2023-09-13T12:59:46.600Z,25.90
2023-09-13T13:02:15.968Z,25.90
2023-09-13T13:04:44.362Z,25.80
2023-09-13T13:07:21.153Z,25.50
2023-09-13T13:09:52.281Z,25.10
2023-09-13T13:12:20.376Z,24.80
2023-09-13T13:14:53.557Z,24.70
2023-09-13T13:17:22.428Z,24.60
2023-09-13T13:19:56.869Z,24.50
2023-09-13T13:22:26.177Z,24.50
2023-09-13T13:24:54.450Z,24.50
2023-09-13T13:27:22.662Z,24.50
2023-09-13T13:29:52.208Z,24.40
2023-09-13T13:32:20.468Z,24.60
2023-09-13T13:34:49.365Z,24.60
2023-09-13T13:37:17.653Z,24.80
2023-09-13T13:39:45.697Z,25.00
2023-09-13T13:42:13.729Z,25.60
2023-09-13T13:44:41.676Z,26.20
2023-09-13T13:47:10.986Z,26.60
2023-09-13T13:49:38.943Z,26.90
2023-09-13T13:52:09.391Z,26.80
2023-09-13T13:54:38.911Z,26.70
2023-09-13T13:57:10.956Z,26.50
2023-09-13T13:59:38.860Z,26.10
2023-09-13T14:02:07.321Z,25.70
2023-09-13T14:04:36.702Z,25.70
2023-09-13T14:07:04.860Z,25.60
2023-09-13T14:09:32.886Z,25.60
2023-09-13T14:12:00.818Z,25.70
2023-09-13T14:14:29.859Z,26.00
2023-09-13T14:16:57.857Z,26.10
2023-09-13T14:19:25.778Z,26.10
2023-09-13T14:21:55.254Z,26.20
2023-09-13T14:24:23.258Z,26.10
2023-09-13T14:26:51.259Z,26.00
2023-09-13T14:29:24.797Z,25.80
2023-09-13T14:31:57.992Z,25.60
2023-09-13T14:34:27.043Z,25.40
2023-09-13T14:36:58.116Z,25.30
2023-09-13T14:39:50.425Z,25.10
2023-09-13T14:42:23.989Z,25.00
2023-09-13T14:44:51.932Z,25.00
2023-09-13T14:47:23.963Z,24.90
2023-09-13T14:49:52.047Z,24.90
2023-09-13T14:52:22.595Z,24.90
2023-09-13T14:54:50.587Z,24.90
2023-09-13T14:57:18.635Z,24.90
2023-09-13T14:59:46.824Z,24.90
2023-09-13T15:02:14.944Z,24.80
2023-09-13T15:04:51.235Z,24.80
2023-09-13T15:07:19.722Z,24.70
2023-09-13T15:09:50.172Z,24.80
2023-09-13T15:12:18.931Z,24.70
2023-09-13T15:14:46.911Z,24.70
2023-09-13T15:17:14.867Z,24.60
2023-09-13T15:19:42.767Z,24.70
2023-09-13T15:22:10.676Z,24.70
2023-09-13T15:24:39.541Z,24.70
2023-09-13T15:27:08.874Z,24.60
2023-09-13T15:29:36.809Z,24.70
2023-09-13T15:32:22.182Z,24.70
2023-09-13T15:34:50.176Z,24.80
2023-09-13T15:37:18.142Z,24.90
2023-09-13T15:39:46.171Z,25.00
2023-09-13T15:42:15.528Z,25.00
2023-09-13T15:44:43.463Z,25.10
2023-09-13T15:47:11.500Z,25.10
2023-09-13T15:49:40.154Z,25.20
2023-09-13T15:52:09.058Z,25.20
2023-09-13T15:54:37.018Z,25.30
2023-09-13T15:57:05.540Z,25.30
2023-09-13T15:59:35.859Z,25.40
2023-09-13T16:02:03.963Z,25.50
2023-09-13T16:04:32.318Z,25.60
2023-09-13T16:07:00.467Z,25.70
2023-09-13T16:09:28.493Z,25.70
2023-09-13T16:11:56.418Z,25.60
2023-09-13T16:14:32.970Z,25.40
2023-09-13T16:17:03.008Z,25.10
2023-09-13T16:19:31.094Z,25.00
2023-09-13T16:21:59.069Z,24.80
2023-09-13T16:24:26.977Z,24.60
2023-09-13T16:26:57.281Z,24.50
2023-09-13T16:29:25.728Z,24.40
2023-09-13T16:31:53.840Z,24.40
2023-09-13T16:34:23.383Z,24.40
2023-09-13T16:36:53.395Z,24.50
2023-09-13T16:39:21.463Z,24.50
2023-09-13T16:41:49.481Z,24.60
2023-09-13T16:44:18.034Z,24.70
2023-09-13T16:46:46.604Z,24.80
2023-09-13T16:49:15.036Z,24.90
2023-09-13T16:51:45.032Z,24.90
2023-09-13T16:54:12.980Z,24.80
2023-09-13T16:56:41.176Z,24.70
2023-09-13T16:59:09.237Z,24.50
2023-09-13T17:01:37.122Z,24.40
2023-09-13T17:04:07.089Z,24.20
2023-09-13T17:06:35.226Z,24.00
2023-09-13T17:09:04.833Z,23.90
2023-09-13T17:11:34.305Z,23.80
2023-09-13T17:14:02.707Z,23.60
2023-09-13T17:16:31.296Z,23.50
2023-09-13T17:18:59.550Z,23.40
2023-09-13T17:21:27.479Z,23.30
2023-09-13T17:23:55.373Z,23.20
2023-09-13T17:26:24.677Z,23.10
2023-09-13T17:28:52.602Z,22.90
2023-09-13T17:31:20.585Z,22.80
2023-09-13T17:33:49.051Z,22.70
2023-09-13T17:36:32.185Z,22.60
2023-09-13T17:39:10.178Z,22.50
2023-09-13T17:41:39.951Z,22.40
2023-09-13T17:44:08.115Z,22.40
2023-09-13T17:46:36.312Z,22.30
2023-09-13T17:49:05.465Z,22.20
2023-09-13T17:51:36.576Z,22.10
2023-09-13T17:54:04.694Z,22.10
2023-09-13T17:56:32.682Z,22.00
2023-09-13T17:59:02.029Z,21.90
2023-09-13T18:01:29.935Z,21.80
2023-09-13T18:03:58.053Z,21.80
2023-09-13T18:06:26.131Z,21.60
2023-09-13T18:08:54.106Z,21.60
2023-09-13T18:11:22.794Z,21.50
2023-09-13T18:13:50.691Z,21.40
2023-09-13T18:16:20.014Z,21.40
2023-09-13T18:18:48.308Z,21.30
2023-09-13T18:21:18.015Z,21.20
2023-09-13T18:23:46.018Z,21.20
2023-09-13T18:26:18.429Z,21.20
2023-09-13T18:28:47.457Z,21.10
2023-09-13T18:31:15.954Z,21.10
2023-09-13T18:33:48.032Z,21.10
2023-09-13T18:36:16.220Z,21.00
2023-09-13T18:38:45.624Z,21.00
2023-09-13T18:41:14.610Z,21.00
2023-09-13T18:43:42.722Z,21.00
2023-09-13T18:46:10.804Z,21.00
2023-09-13T18:48:38.821Z,21.00
2023-09-13T18:51:08.203Z,20.90
2023-09-13T18:53:36.126Z,20.90
2023-09-13T18:56:05.640Z,20.90
2023-09-13T18:58:33.646Z,20.90
2023-09-13T19:01:02.681Z,20.90
2023-09-13T19:03:31.133Z,20.80
2023-09-13T19:06:00.194Z,20.80
2023-09-13T19:08:30.777Z,20.70
2023-09-13T19:11:00.962Z,20.60
2023-09-13T19:13:30.585Z,20.60
2023-09-13T19:16:00.419Z,20.50
2023-09-13T19:18:29.143Z,20.50
2023-09-13T19:20:57.220Z,20.40
2023-09-13T19:23:25.764Z,20.30
2023-09-13T19:25:56.790Z,20.30
2023-09-13T19:28:25.916Z,20.20
2023-09-13T19:30:54.861Z,20.20
2023-09-13T19:33:25.462Z,20.10
2023-09-13T19:35:54.165Z,20.00
2023-09-13T19:38:29.955Z,19.90
2023-09-13T19:41:00.764Z,19.80
2023-09-13T19:43:30.147Z,19.80
2023-09-13T19:45:59.807Z,19.70
2023-09-13T19:48:29.018Z,19.60
2023-09-13T19:50:59.396Z,19.60
2023-09-13T19:53:27.825Z,19.60
2023-09-13T19:56:01.877Z,19.60
2023-09-13T19:58:30.966Z,19.50
2023-09-13T20:01:06.036Z,19.50
2023-09-13T20:03:34.664Z,19.50
2023-09-13T20:06:08.895Z,19.50
2023-09-13T20:08:37.008Z,19.50
2023-09-13T20:11:06.483Z,19.50
2023-09-13T20:13:34.415Z,19.50
2023-09-13T20:16:02.417Z,19.50
2023-09-13T20:18:30.545Z,19.50
2023-09-13T20:20:59.702Z,19.40
2023-09-13T20:23:28.190Z,19.40
2023-09-13T20:25:57.664Z,19.30
2023-09-13T20:28:30.178Z,19.20
2023-09-13T20:30:58.641Z,19.20
2023-09-13T20:33:26.834Z,19.20
2023-09-13T20:35:55.217Z,19.20
2023-09-13T20:38:23.191Z,19.10
2023-09-13T20:40:52.452Z,19.10
2023-09-13T20:43:20.562Z,19.10
2023-09-13T20:45:50.348Z,19.10
2023-09-13T20:48:18.749Z,19.10
2023-09-13T20:50:46.698Z,19.10
2023-09-13T20:53:14.808Z,19.10
2023-09-13T20:55:43.099Z,19.10
2023-09-13T20:58:11.220Z,19.20
2023-09-13T21:00:39.373Z,19.20
2023-09-13T21:03:08.818Z,19.20
2023-09-13T21:05:36.887Z,19.20
2023-09-13T21:08:05.280Z,19.20
2023-09-13T21:10:33.220Z,19.10
2023-09-13T21:13:01.388Z,19.10
2023-09-13T21:15:37.788Z,19.10
2023-09-13T21:18:06.440Z,19.10
2023-09-13T21:20:36.135Z,19.10
2023-09-13T21:23:08.604Z,19.10
2023-09-13T21:25:36.713Z,19.10
2023-09-13T21:28:06.383Z,19.10
2023-09-13T21:30:34.477Z,19.10
2023-09-13T21:33:02.599Z,19.00
2023-09-13T21:35:30.684Z,19.00
2023-09-13T21:38:00.054Z,19.00
2023-09-13T21:40:28.072Z,18.90
2023-09-13T21:42:57.475Z,18.90
2023-09-13T21:45:25.734Z,18.90
2023-09-13T21:47:57.477Z,18.90
2023-09-13T21:50:25.600Z,18.90
2023-09-13T21:52:53.641Z,18.90
2023-09-13T21:55:22.955Z,18.90
2023-09-13T21:57:50.900Z,18.80
2023-09-13T22:00:22.097Z,18.80
2023-09-13T22:02:50.334Z,18.80
2023-09-13T22:05:23.343Z,18.80
2023-09-13T22:07:51.777Z,18.80
2023-09-13T22:10:22.839Z,18.70
2023-09-13T22:12:54.270Z,18.70
2023-09-13T22:15:23.084Z,18.70
2023-09-13T22:17:52.816Z,18.60
2023-09-13T22:20:22.973Z,18.60
2023-09-13T22:22:51.277Z,18.60
2023-09-13T22:25:20.262Z,18.50
2023-09-13T22:27:48.602Z,18.50
2023-09-13T22:30:18.170Z,18.50
2023-09-13T22:32:46.441Z,18.50
2023-09-13T22:35:14.735Z,18.50
2023-09-13T22:37:42.883Z,18.50
2023-09-13T22:40:12.203Z,18.50
2023-09-13T22:42:40.400Z,18.40
2023-09-13T22:45:08.983Z,18.40
2023-09-13T22:47:38.571Z,18.30
2023-09-13T22:50:08.501Z,18.30
2023-09-13T22:52:36.604Z,18.30
2023-09-13T22:55:05.010Z,18.10
2023-09-13T22:57:33.945Z,18.10
2023-09-13T23:00:02.158Z,18.00
2023-09-13T23:02:32.055Z,18.00
2023-09-13T23:05:01.780Z,18.00
2023-09-13T23:07:30.161Z,18.00
2023-09-13T23:09:58.200Z,17.90
2023-09-13T23:12:26.188Z,17.90
2023-09-13T23:14:54.625Z,17.90
2023-09-13T23:17:22.623Z,17.90
2023-09-13T23:19:50.544Z,17.90
2023-09-13T23:22:19.843Z,17.90
2023-09-13T23:24:47.920Z,17.80
2023-09-13T23:27:15.874Z,17.90
2023-09-13T23:29:43.727Z,17.80
2023-09-13T23:32:11.647Z,17.80
2023-09-13T23:34:41.314Z,17.80
2023-09-13T23:37:09.234Z,17.70
2023-09-13T23:39:38.996Z,17.60
2023-09-13T23:42:08.413Z,17.60
2023-09-13T23:44:36.355Z,17.50
2023-09-13T23:47:04.534Z,17.40
2023-09-13T23:49:34.653Z,17.30
2023-09-13T23:52:02.698Z,17.20
2023-09-13T23:54:30.734Z,17.20
2023-09-13T23:57:00.193Z,17.10
2023-09-13T23:59:28.464Z,17.00
